Cleone, California
Current Conditions -  °F | °C
As of 1:56 PM on Thursday 18 Dec 2014 (Local Time) from KUKI Reporting Station
Overcast Overcast  
Wind Chill: 55°   Ceiling: 4300
Heat Index: 55°   Visibility: 10mi
Dew Point: 49°   Wind: 8mph
Humidity: 80%   Direction: 140°SE
Pressure: 30.12"   Gusts: NA
Location:  39.4588°N, 123.715°W
Report Text: KUKI 182156Z AUTO 14007KT 10SM FEW020 OVC043 13/09 A3012 RMK AO2 SLP198 T01280094
Loading
Personal Weather Stations






























Interactive Weather Map New forecast layout! Learn more

10-Day Weather Forecast

Advertisements
Track Severe Weather on mobile